Time;durP1;ratioP1;P1;durP2;ratioP2;P2;SDS_P1;SDS_P2;PMS_P1;PMS_P2;Temp;Humidity;BMP_temperature;BMP_pressure;BME280_temperature;BME280_humidity;BME280_pressure;Samples;Min_cycle;Max_cycle;Signal;HPM_P1;HPM_P2
2023/07/07 00:00:14;;;;;;;;;;;;;;;27.13;52.12;99360.34;5091154;28;20414;-43
2023/07/07 00:02:40;;;;;;;;;;;;;;;26.99;52.21;99349.59;5090775;28;19919;-42
2023/07/07 00:05:05;;;;;;;;;;;;;;;26.97;51.93;99359.22;5090979;28;19919;-43
2023/07/07 00:07:31;;;;;;;;;;;;;;;27.12;51.52;99347.81;5090830;28;20435;-42
2023/07/07 00:09:56;;;;;;;;;;;;;;;27.11;51.37;99354.38;5090759;28;19916;-43
2023/07/07 00:12:22;;;;;;;;;;;;;;;27.24;51.06;99353.41;5090791;28;19985;-43
2023/07/07 00:14:47;;;;;;;;;;;;;;;27.22;50.85;99361.13;5090946;28;19968;-43
2023/07/07 00:17:15;;;;;;;;;;;;;;;27.17;50.90;99352.28;5090736;28;19919;-43
2023/07/07 00:19:41;;;;;;;;;;;;;;;27.03;51.23;99358.72;5091026;28;19916;-42
2023/07/07 00:22:06;;;;;;;;;;;;;;;27.15;51.12;99354.53;5090836;28;20284;-43
2023/07/07 00:24:32;;;;;;;;;;;;;;;27.13;50.93;99352.16;5090518;28;20373;-42
2023/07/07 00:26:58;;;;;;;;;;;;;;;27.22;50.91;99360.31;5090481;28;19916;-42
2023/07/07 00:29:23;;;;;;;;;;;;;;;27.03;51.11;99350.53;5088814;28;19924;-41
2023/07/07 00:31:48;;;;;;;;;;;;;;;26.90;51.56;99357.78;5090641;28;19916;-42
2023/07/07 00:34:14;;;;;;;;;;;;;;;26.90;51.54;99355.06;5090438;28;19931;-43
2023/07/07 00:36:39;;;;;;;;;;;;;;;26.93;51.70;99361.81;5090347;28;19920;-42
2023/07/07 00:39:04;;;;;;;;;;;;;;;26.66;52.28;99358.25;5090193;28;19912;-42
2023/07/07 00:41:30;;;;;;;;;;;;;;;26.56;52.03;99363.19;5090401;28;19912;-43
2023/07/07 00:44:09;;;;;;;;;;;;;;;26.52;52.21;99363.84;5090387;28;20327;-43
2023/07/07 00:46:36;;;;;;;;;;;;;;;26.39;52.21;99359.34;5090325;28;19919;-42
2023/07/07 00:49:03;;;;;;;;;;;;;;;26.04;53.28;99363.88;5090276;28;20019;-43
2023/07/07 00:51:37;;;;;;;;;;;;;;;26.16;52.91;99368.72;5089458;28;19912;-42
2023/07/07 00:54:05;;;;;;;;;;;;;;;26.17;53.20;99364.88;5090210;28;20002;-42
2023/07/07 00:56:34;;;;;;;;;;;;;;;26.39;52.52;99364.78;5089974;28;19912;-42
2023/07/07 00:59:03;;;;;;;;;;;;;;;26.20;53.15;99372.41;5090018;28;20269;-42
2023/07/07 01:01:29;;;;;;;;;;;;;;;25.80;54.18;99372.41;5090140;28;19977;-43
2023/07/07 01:03:57;;;;;;;;;;;;;;;25.97;53.77;99368.97;5090048;28;19916;-43
2023/07/07 01:06:26;;;;;;;;;;;;;;;25.80;54.31;99375.94;5090218;28;19999;-42
2023/07/07 01:08:58;;;;;;;;;;;;;;;25.54;55.10;99382.06;5090094;28;19924;-43
2023/07/07 01:11:23;;;;;;;;;;;;;;;25.65;54.69;99374.44;5089723;28;19919;-42
2023/07/07 01:13:49;;;;;;;;;;;;;;;25.55;54.77;99380.13;5089856;28;19913;-42
2023/07/07 01:16:14;;;;;;;;;;;;;;;25.61;54.61;99367.19;5089762;28;20384;-42
2023/07/07 01:19:15;;;;;;;;;;;;;;;25.65;54.34;99371.72;5089865;28;20380;-43
2023/07/07 01:22:03;;;;;;;;;;;;;;;25.89;53.64;99367.78;5070484;28;20245;-42
2023/07/07 01:24:38;;;;;;;;;;;;;;;26.17;52.85;99365.69;5089491;28;19915;-42
2023/07/07 01:27:21;;;;;;;;;;;;;;;25.75;53.68;99365.19;5089894;28;19912;-43
2023/07/07 01:30:05;;;;;;;;;;;;;;;25.92;53.22;99367.22;5090014;28;19970;-42
2023/07/07 01:32:34;;;;;;;;;;;;;;;25.55;53.86;99369.22;5090010;28;19959;-42
2023/07/07 01:35:03;;;;;;;;;;;;;;;25.23;54.99;99371.16;5089821;28;19924;-43
2023/07/07 01:37:28;;;;;;;;;;;;;;;25.39;54.76;99362.59;5089955;28;19919;-43
2023/07/07 01:39:54;;;;;;;;;;;;;;;25.53;54.05;99364.13;5090107;28;19999;-43
2023/07/07 01:42:27;;;;;;;;;;;;;;;25.45;54.59;99366.78;5089854;28;19916;-42
2023/07/07 01:45:28;;;;;;;;;;;;;;;25.67;54.15;99353.13;5089744;28;20069;-43
2023/07/07 01:48:14;;;;;;;;;;;;;;;25.79;53.43;99360.72;5050007;28;19913;-43
2023/07/07 01:50:39;;;;;;;;;;;;;;;26.10;52.52;99359.88;5082991;28;19920;-42
2023/07/07 01:53:08;;;;;;;;;;;;;;;26.27;52.09;99354.50;5090356;28;20256;-43
2023/07/07 01:55:37;;;;;;;;;;;;;;;26.36;51.72;99354.50;5090373;28;20018;-43
2023/07/07 01:58:04;;;;;;;;;;;;;;;25.82;52.92;99356.56;5090503;28;19981;-44
2023/07/07 02:00:31;;;;;;;;;;;;;;;25.96;52.90;99356.47;5090110;28;20034;-43
2023/07/07 02:02:57;;;;;;;;;;;;;;;25.95;52.83;99352.97;5092205;28;19948;-42
2023/07/07 02:05:23;;;;;;;;;;;;;;;26.07;52.72;99355.09;5093659;28;19912;-42
2023/07/07 02:07:49;;;;;;;;;;;;;;;26.19;52.42;99352.53;5093709;28;19919;-42
2023/07/07 02:10:14;;;;;;;;;;;;;;;26.29;52.17;99356.88;5093740;28;20387;-42
2023/07/07 02:12:39;;;;;;;;;;;;;;;26.18;52.43;99355.56;5093143;28;19913;-42
2023/07/07 02:15:05;;;;;;;;;;;;;;;26.24;52.06;99354.31;5093244;28;19912;-42
2023/07/07 02:17:30;;;;;;;;;;;;;;;26.32;51.87;99356.25;5093208;28;19912;-43
2023/07/07 02:19:56;;;;;;;;;;;;;;;26.25;52.04;99351.25;5093596;28;19926;-42
2023/07/07 02:22:21;;;;;;;;;;;;;;;26.06;52.58;99353.47;5093439;28;19978;-42
2023/07/07 02:24:47;;;;;;;;;;;;;;;26.25;52.21;99347.75;5093405;28;19912;-42
2023/07/07 02:27:12;;;;;;;;;;;;;;;26.34;51.97;99354.03;5092834;28;20424;-42
2023/07/07 02:29:37;;;;;;;;;;;;;;;26.34;52.08;99352.09;5093123;28;19936;-43
2023/07/07 02:32:04;;;;;;;;;;;;;;;25.99;52.86;99331.31;5093364;28;19911;-42
2023/07/07 02:34:29;;;;;;;;;;;;;;;26.21;52.59;99361.19;5092542;28;19924;-42
2023/07/07 02:36:54;;;;;;;;;;;;;;;26.11;52.93;99362.31;5092689;28;20007;-42
2023/07/07 02:39:20;;;;;;;;;;;;;;;26.19;52.34;99368.09;5092817;28;19940;-42
2023/07/07 02:41:45;;;;;;;;;;;;;;;26.14;52.69;99372.59;5093155;28;19991;-42
2023/07/07 02:44:10;;;;;;;;;;;;;;;26.25;52.25;99369.56;5093086;28;19916;-42
2023/07/07 02:46:36;;;;;;;;;;;;;;;26.24;52.33;99374.22;5093166;28;19912;-42
2023/07/07 02:49:01;;;;;;;;;;;;;;;26.21;52.37;99374.84;5093013;28;20442;-42
2023/07/07 02:51:26;;;;;;;;;;;;;;;26.36;52.09;99367.34;5092918;28;19912;-42
2023/07/07 02:53:51;;;;;;;;;;;;;;;26.45;51.86;99371.69;5092081;28;19912;-42
2023/07/07 02:56:17;;;;;;;;;;;;;;;26.31;51.82;99376.47;5092756;28;20011;-42
2023/07/07 02:58:42;;;;;;;;;;;;;;;26.45;51.62;99377.16;5092632;28;19912;-42
2023/07/07 03:01:11;;;;;;;;;;;;;;;26.41;51.49;99380.84;5092567;28;19912;-41
2023/07/07 03:03:38;;;;;;;;;;;;;;;26.26;51.82;99377.41;5092616;28;19912;-42
2023/07/07 03:06:04;;;;;;;;;;;;;;;26.37;51.25;99367.03;5092373;28;19912;-42
2023/07/07 03:08:29;;;;;;;;;;;;;;;26.34;51.27;99373.09;5092467;28;19948;-42
2023/07/07 03:10:55;;;;;;;;;;;;;;;26.00;51.83;99380.06;5092365;28;19985;-42
2023/07/07 03:13:20;;;;;;;;;;;;;;;26.05;51.81;99373.69;5094448;28;19923;-42
2023/07/07 03:15:45;;;;;;;;;;;;;;;26.21;51.34;99380.28;5091652;28;19924;-42
2023/07/07 03:18:13;;;;;;;;;;;;;;;26.37;50.96;99371.66;5092354;28;19927;-42
2023/07/07 03:20:45;;;;;;;;;;;;;;;26.45;50.64;99377.16;5092313;28;20340;-42
2023/07/07 03:23:10;;;;;;;;;;;;;;;26.18;51.79;99377.38;5092193;28;19940;-43
2023/07/07 03:25:35;;;;;;;;;;;;;;;26.13;51.88;99378.34;5092160;28;19962;-43
2023/07/07 03:28:01;;;;;;;;;;;;;;;26.40;51.50;99373.75;5092027;28;20011;-43
2023/07/07 03:30:27;;;;;;;;;;;;;;;26.56;50.92;99377.66;5091698;28;20396;-43
2023/07/07 03:32:52;;;;;;;;;;;;;;;26.48;51.11;99372.97;5092313;28;19959;-43
2023/07/07 03:35:17;;;;;;;;;;;;;;;26.21;51.95;99377.56;5091588;28;20008;-43
2023/07/07 03:37:42;;;;;;;;;;;;;;;25.89;52.50;99368.63;5091889;28;19916;-42
2023/07/07 03:40:09;;;;;;;;;;;;;;;26.38;51.63;99376.00;5091675;28;19958;-43
2023/07/07 03:42:34;;;;;;;;;;;;;;;26.38;51.08;99368.63;5091186;28;20356;-42
2023/07/07 03:45:00;;;;;;;;;;;;;;;26.69;50.89;99381.38;5091714;28;20007;-42
2023/07/07 03:47:25;;;;;;;;;;;;;;;26.91;49.78;99377.69;5091416;28;19981;-46
2023/07/07 03:49:51;;;;;;;;;;;;;;;26.69;50.35;99378.63;5091256;28;19920;-46
2023/07/07 03:52:16;;;;;;;;;;;;;;;27.11;49.41;99381.69;5091839;28;19990;-46
2023/07/07 03:54:42;;;;;;;;;;;;;;;27.53;48.57;99381.16;5091533;28;20028;-42
2023/07/07 03:57:08;;;;;;;;;;;;;;;27.73;48.05;99380.47;5091738;28;19928;-42
2023/07/07 03:59:33;;;;;;;;;;;;;;;27.76;47.76;99382.56;5091255;28;19912;-42
2023/07/07 04:01:58;;;;;;;;;;;;;;;27.75;48.00;99383.69;5091917;28;19912;-42
2023/07/07 04:04:24;;;;;;;;;;;;;;;28.12;47.08;99375.84;5091764;28;20388;-41
2023/07/07 04:06:51;;;;;;;;;;;;;;;28.38;46.53;99378.41;5092085;28;19916;-41
2023/07/07 04:09:17;;;;;;;;;;;;;;;28.84;45.25;99392.31;5091738;28;19938;-42
2023/07/07 04:11:42;;;;;;;;;;;;;;;28.45;45.35;99375.16;5091727;28;20392;-42
2023/07/07 04:14:07;;;;;;;;;;;;;;;28.68;45.40;99383.91;5091684;28;19912;-42
2023/07/07 04:16:33;;;;;;;;;;;;;;;28.69;45.05;99387.44;5091587;28;19916;-42
2023/07/07 04:18:58;;;;;;;;;;;;;;;28.72;45.30;99390.31;5091353;28;20012;-42
2023/07/07 04:21:24;;;;;;;;;;;;;;;28.88;44.84;99385.00;5091692;28;19912;-42
2023/07/07 04:23:51;;;;;;;;;;;;;;;28.89;44.63;99383.88;5091436;28;19919;-42
2023/07/07 04:26:17;;;;;;;;;;;;;;;29.20;44.24;99383.47;5090425;28;19955;-42
2023/07/07 04:28:42;;;;;;;;;;;;;;;29.39;43.41;99390.41;5091536;28;20007;-42
2023/07/07 04:31:09;;;;;;;;;;;;;;;29.80;42.81;99383.22;5091352;28;20003;-42
2023/07/07 04:33:35;;;;;;;;;;;;;;;30.29;41.91;99393.38;5091192;28;19924;-43
2023/07/07 04:36:02;;;;;;;;;;;;;;;30.44;41.40;99389.97;5091371;28;19912;-43
2023/07/07 04:38:31;;;;;;;;;;;;;;;29.99;42.38;99396.38;5091415;28;20371;-43
2023/07/07 04:41:04;;;;;;;;;;;;;;;29.81;42.98;99388.34;5090942;28;19919;-42
2023/07/07 04:43:29;;;;;;;;;;;;;;;29.78;42.75;99386.28;5090625;28;19984;-42
2023/07/07 04:45:55;;;;;;;;;;;;;;;30.18;42.26;99401.28;5090737;28;19916;-42
2023/07/07 04:48:20;;;;;;;;;;;;;;;30.07;42.23;99391.91;5090178;28;20362;-41
2023/07/07 04:50:45;;;;;;;;;;;;;;;30.56;41.51;99400.16;5090730;28;19919;-46
2023/07/07 04:53:10;;;;;;;;;;;;;;;31.05;40.69;99404.72;5090529;28;20366;-46
2023/07/07 04:55:39;;;;;;;;;;;;;;;31.42;40.23;99407.31;5090078;28;19952;-46
2023/07/07 04:58:04;;;;;;;;;;;;;;;31.48;39.90;99401.22;5090532;28;19912;-47
2023/07/07 05:00:30;;;;;;;;;;;;;;;31.80;39.20;99409.53;5090886;28;19919;-47
2023/07/07 05:02:55;;;;;;;;;;;;;;;31.90;39.23;99399.94;5090200;28;20081;-47
2023/07/07 05:05:20;;;;;;;;;;;;;;;31.60;39.19;99397.59;5090235;28;19916;-47
2023/07/07 05:07:45;;;;;;;;;;;;;;;31.72;39.34;99405.78;5090060;28;19912;-47
2023/07/07 05:10:11;;;;;;;;;;;;;;;31.47;39.80;99407.91;5090008;28;20164;-47
2023/07/07 05:12:36;;;;;;;;;;;;;;;31.51;39.68;99400.53;5090397;28;20014;-47
2023/07/07 05:15:01;;;;;;;;;;;;;;;32.08;38.90;99400.38;5089971;28;19916;-42
2023/07/07 05:17:27;;;;;;;;;;;;;;;32.13;38.66;99398.16;5090154;28;20311;-43
2023/07/07 05:19:52;;;;;;;;;;;;;;;32.67;38.07;99402.19;5090189;28;20022;-42
2023/07/07 05:22:18;;;;;;;;;;;;;;;33.01;36.97;99401.69;5090183;28;20268;-43
2023/07/07 05:24:43;;;;;;;;;;;;;;;32.99;37.01;99396.53;5089706;28;20390;-42
2023/07/07 05:27:08;;;;;;;;;;;;;;;32.78;37.89;99396.09;5089601;28;19935;-42
2023/07/07 05:29:34;;;;;;;;;;;;;;;32.21;38.64;99412.09;5089521;28;20020;-41
2023/07/07 05:31:59;;;;;;;;;;;;;;;31.87;39.33;99409.72;5089847;28;19916;-42
2023/07/07 05:34:24;;;;;;;;;;;;;;;32.72;38.36;99412.91;5089748;28;20399;-43
2023/07/07 05:36:50;;;;;;;;;;;;;;;32.55;37.96;99416.03;5090205;28;20394;-42
2023/07/07 05:39:15;;;;;;;;;;;;;;;32.73;37.84;99416.47;5093900;28;19952;-43
2023/07/07 05:41:40;;;;;;;;;;;;;;;33.30;36.68;99414.91;5093587;28;20300;-42
2023/07/07 05:44:06;;;;;;;;;;;;;;;32.92;37.50;99410.19;5093755;28;19922;-42
2023/07/07 05:46:31;;;;;;;;;;;;;;;32.99;37.47;99413.06;5114756;28;20010;-41
2023/07/07 05:48:56;;;;;;;;;;;;;;;32.98;37.54;99414.25;5115239;28;19904;-41
2023/07/07 05:51:21;;;;;;;;;;;;;;;32.74;37.94;99426.31;5115224;28;20007;-41
2023/07/07 05:53:47;;;;;;;;;;;;;;;32.26;38.90;99418.13;5114843;28;19915;-41
2023/07/07 05:56:18;;;;;;;;;;;;;;;32.59;38.69;99427.94;5114232;28;20372;-42
2023/07/07 05:58:43;;;;;;;;;;;;;;;32.81;38.65;99420.19;5113702;28;19955;-41
2023/07/07 06:01:10;;;;;;;;;;;;;;;32.66;38.72;99419.84;5113495;28;19976;-41
2023/07/07 06:03:37;;;;;;;;;;;;;;;33.34;38.04;99416.91;5111764;28;20410;-39
2023/07/07 06:06:02;;;;;;;;;;;;;;;34.14;36.16;99412.44;5112028;28;19943;-42
2023/07/07 06:08:27;;;;;;;;;;;;;;;33.67;37.20;99414.41;5111933;28;19912;-43
2023/07/07 06:10:53;;;;;;;;;;;;;;;34.73;35.28;99412.97;5112074;28;19920;-43
2023/07/07 06:13:18;;;;;;;;;;;;;;;34.70;35.57;99412.91;5102035;28;20341;-42
2023/07/07 06:15:44;;;;;;;;;;;;;;;34.36;35.82;99421.06;5092047;28;19919;-42
2023/07/07 06:18:09;;;;;;;;;;;;;;;33.96;36.37;99420.41;5092931;28;20452;-43
2023/07/07 06:20:34;;;;;;;;;;;;;;;33.39;37.20;99416.63;5093100;28;20057;-42
2023/07/07 06:23:00;;;;;;;;;;;;;;;34.23;36.18;99424.06;5092738;28;20405;-43
2023/07/07 06:25:25;;;;;;;;;;;;;;;35.32;34.59;99423.53;5092959;28;19912;-42
2023/07/07 06:27:51;;;;;;;;;;;;;;;35.15;34.08;99420.19;5092513;28;19937;-42
2023/07/07 06:30:16;;;;;;;;;;;;;;;35.21;34.08;99418.69;5092793;28;19916;-42
2023/07/07 06:32:42;;;;;;;;;;;;;;;34.73;34.92;99421.25;5093041;28;20392;-41
2023/07/07 06:35:07;;;;;;;;;;;;;;;33.95;36.30;99431.81;5092109;28;19924;-42
2023/07/07 06:37:32;;;;;;;;;;;;;;;34.47;35.67;99422.03;5092376;28;19984;-42
2023/07/07 06:39:58;;;;;;;;;;;;;;;35.34;34.59;99426.72;5092151;28;19916;-42
2023/07/07 06:42:23;;;;;;;;;;;;;;;36.06;33.49;99436.50;5092613;28;19916;-44
2023/07/07 06:44:48;;;;;;;;;;;;;;;35.33;34.01;99425.13;5092336;28;19951;-44
2023/07/07 06:47:17;;;;;;;;;;;;;;;35.73;33.59;99429.91;5092098;28;19912;-37
2023/07/07 06:49:42;;;;;;;;;;;;;;;35.43;34.09;99433.56;5091252;28;20425;-36
2023/07/07 06:52:08;;;;;;;;;;;;;;;34.70;34.78;99426.72;5092116;28;19919;-36
2023/07/07 06:54:33;;;;;;;;;;;;;;;34.64;34.64;99423.44;5092516;28;19943;-36
2023/07/07 06:56:58;;;;;;;;;;;;;;;35.17;34.13;99422.56;5092266;28;20427;-37
2023/07/07 06:59:24;;;;;;;;;;;;;;;34.93;34.48;99424.66;5091966;28;19935;-37
2023/07/07 07:01:49;;;;;;;;;;;;;;;34.61;35.14;99430.50;5092135;28;19940;-37
2023/07/07 07:04:14;;;;;;;;;;;;;;;34.86;34.89;99421.78;5091828;28;19918;-35
2023/07/07 07:06:43;;;;;;;;;;;;;;;35.68;33.65;99421.97;5092190;28;19912;-37
2023/07/07 07:09:09;;;;;;;;;;;;;;;36.01;33.16;99415.53;5091796;28;19984;-36
2023/07/07 07:11:34;;;;;;;;;;;;;;;36.27;33.12;99426.81;5091470;28;19920;-36
2023/07/07 07:13:59;;;;;;;;;;;;;;;36.68;32.65;99423.94;5091007;28;19912;-37
2023/07/07 07:16:25;;;;;;;;;;;;;;;37.28;31.19;99417.88;5091649;28;19912;-36
2023/07/07 07:18:50;;;;;;;;;;;;;;;37.62;30.96;99417.53;5091314;28;19912;-36
2023/07/07 07:21:16;;;;;;;;;;;;;;;37.77;30.57;99412.03;5091078;28;20060;-36
2023/07/07 07:23:41;;;;;;;;;;;;;;;37.63;30.90;99402.50;5090920;28;19923;-37
2023/07/07 07:26:07;;;;;;;;;;;;;;;37.54;31.73;99419.50;5091163;28;19912;-37
2023/07/07 07:28:32;;;;;;;;;;;;;;;38.00;30.32;99411.63;5091171;28;19916;-37
2023/07/07 07:30:57;;;;;;;;;;;;;;;37.36;30.53;99413.91;5090709;28;19926;-37
2023/07/07 07:33:23;;;;;;;;;;;;;;;36.81;31.55;99416.09;5090553;28;19932;-38
2023/07/07 07:35:48;;;;;;;;;;;;;;;37.33;31.20;99417.47;5090923;28;19916;-36
2023/07/07 07:38:15;;;;;;;;;;;;;;;38.04;30.57;99415.19;5090876;28;19968;-37
2023/07/07 07:40:40;;;;;;;;;;;;;;;38.77;29.81;99417.47;5090901;28;20006;-36
2023/07/07 07:43:05;;;;;;;;;;;;;;;38.41;29.47;99409.22;5090739;28;20286;-37
2023/07/07 07:45:31;;;;;;;;;;;;;;;37.14;31.05;99417.81;5090988;28;19924;-37
2023/07/07 07:47:56;;;;;;;;;;;;;;;36.62;31.58;99428.25;5090997;28;19996;-37
2023/07/07 07:50:21;;;;;;;;;;;;;;;37.32;30.63;99415.13;5090670;28;19990;-37
2023/07/07 07:52:47;;;;;;;;;;;;;;;37.64;30.15;99417.16;5090991;28;20313;-37
2023/07/07 07:55:14;;;;;;;;;;;;;;;37.25;30.08;99421.41;5090753;28;19912;-37
2023/07/07 07:57:39;;;;;;;;;;;;;;;36.79;30.90;99419.25;5091067;28;20033;-38
2023/07/07 08:00:05;;;;;;;;;;;;;;;36.60;30.81;99412.78;5090776;28;20342;-37
2023/07/07 08:02:31;;;;;;;;;;;;;;;36.78;30.54;99426.78;5091114;28;19912;-42
2023/07/07 08:04:56;;;;;;;;;;;;;;;36.06;31.12;99414.38;5090663;28;20296;-42
2023/07/07 08:07:22;;;;;;;;;;;;;;;36.90;30.30;99425.63;5090635;28;19973;-42
2023/07/07 08:09:47;;;;;;;;;;;;;;;37.48;29.63;99415.53;5090820;28;19916;-41
2023/07/07 08:12:13;;;;;;;;;;;;;;;38.14;28.57;99415.22;5090671;28;19984;-41
2023/07/07 08:14:38;;;;;;;;;;;;;;;38.72;28.17;99412.31;5090719;28;19923;-43
2023/07/07 08:17:05;;;;;;;;;;;;;;;38.09;28.00;99414.81;5090699;28;20018;-44
2023/07/07 08:19:32;;;;;;;;;;;;;;;38.42;27.29;99424.69;5090405;28;20473;-45
2023/07/07 08:21:57;;;;;;;;;;;;;;;38.14;27.53;99417.19;5090610;28;20280;-43
2023/07/07 08:24:24;;;;;;;;;;;;;;;38.48;27.54;99413.94;5090257;28;19956;-45
2023/07/07 08:26:50;;;;;;;;;;;;;;;38.25;27.93;99414.41;5090480;28;19998;-43
2023/07/07 08:29:15;;;;;;;;;;;;;;;38.53;27.60;99422.69;5090675;28;20424;-43
2023/07/07 08:31:40;;;;;;;;;;;;;;;38.54;28.29;99423.50;5090362;28;19912;-42
2023/07/07 08:34:06;;;;;;;;;;;;;;;38.71;27.54;99411.53;5090117;28;20425;-44
2023/07/07 08:36:31;;;;;;;;;;;;;;;38.30;28.09;99417.56;5090357;28;19912;-42
2023/07/07 08:39:10;;;;;;;;;;;;;;;38.31;28.44;99404.47;5090386;28;20028;-41
2023/07/07 08:41:35;;;;;;;;;;;;;;;38.15;28.33;99404.88;5090415;28;20364;-41
2023/07/07 08:44:01;;;;;;;;;;;;;;;37.99;28.70;99408.06;5090364;28;20017;-42
2023/07/07 08:46:46;;;;;;;;;;;;;;;37.01;29.81;99413.78;5090172;28;19912;-42
2023/07/07 08:49:16;;;;;;;;;;;;;;;37.22;29.02;99399.22;5090345;28;20248;-43
2023/07/07 08:51:46;;;;;;;;;;;;;;;36.54;29.96;99394.94;5090040;28;20363;-43
2023/07/07 08:54:25;;;;;;;;;;;;;;;37.31;29.11;99392.09;5089931;28;19922;-42
2023/07/07 08:56:54;;;;;;;;;;;;;;;37.16;29.25;99391.28;5089908;28;19951;-43
2023/07/07 08:59:30;;;;;;;;;;;;;;;36.45;29.77;99390.94;5090087;28;19912;-43
2023/07/07 09:02:15;;;;;;;;;;;;;;;35.96;30.80;99395.72;5090317;28;19918;-43
2023/07/07 09:04:40;;;;;;;;;;;;;;;36.34;29.95;99390.88;5089877;28;19912;-44
2023/07/07 09:07:24;;;;;;;;;;;;;;;35.82;30.77;99391.66;5090112;28;20364;-42
2023/07/07 09:09:58;;;;;;;;;;;;;;;36.60;29.95;99387.06;5090049;28;20416;-37
2023/07/07 09:12:29;;;;;;;;;;;;;;;36.90;29.34;99383.25;5091238;28;19912;-37
2023/07/07 09:14:57;;;;;;;;;;;;;;;37.07;28.89;99382.53;5093872;28;19935;-37
2023/07/07 09:17:27;;;;;;;;;;;;;;;37.62;28.63;99375.91;5093785;28;20448;-37
2023/07/07 09:19:54;;;;;;;;;;;;;;;37.88;28.14;99371.97;5093842;28;19916;-37
2023/07/07 09:22:28;;;;;;;;;;;;;;;37.88;28.03;99373.94;5093957;28;19912;-37
2023/07/07 09:25:12;;;;;;;;;;;;;;;38.01;27.61;99369.56;5094016;28;19973;-36
2023/07/07 09:27:40;;;;;;;;;;;;;;;38.37;26.97;99369.53;5093910;28;19919;-37
2023/07/07 09:30:11;;;;;;;;;;;;;;;37.66;28.20;99362.88;5093722;28;19969;-37
2023/07/07 09:32:37;;;;;;;;;;;;;;;37.15;28.94;99372.28;5093852;28;19993;-36
2023/07/07 09:35:03;;;;;;;;;;;;;;;37.19;28.73;99369.50;5093696;28;20391;-37
2023/07/07 09:37:28;;;;;;;;;;;;;;;36.32;29.47;99362.75;5093621;28;20334;-43
2023/07/07 09:40:07;;;;;;;;;;;;;;;36.33;29.79;99367.13;5093101;28;19916;-37
2023/07/07 09:43:02;;;;;;;;;;;;;;;36.78;28.82;99364.97;5093835;28;19916;-38
2023/07/07 09:45:27;;;;;;;;;;;;;;;36.35;29.11;99367.53;5089075;28;19912;-35
2023/07/07 09:47:58;;;;;;;;;;;;;;;36.25;29.23;99373.78;5093787;28;19919;-37
2023/07/07 09:50:26;;;;;;;;;;;;;;;36.45;28.88;99358.47;5093383;28;20018;-36
2023/07/07 09:53:10;;;;;;;;;;;;;;;36.38;29.44;99358.44;5093893;28;20376;-37
2023/07/07 09:55:36;;;;;;;;;;;;;;;36.74;29.14;99361.41;5093802;28;19973;-37
2023/07/07 09:58:02;;;;;;;;;;;;;;;36.69;28.85;99362.59;5093604;28;19962;-37
2023/07/07 10:00:29;;;;;;;;;;;;;;;36.83;29.29;99361.84;5093132;28;19944;-36
2023/07/07 10:02:54;;;;;;;;;;;;;;;36.87;29.29;99370.19;5093153;28;19999;-36
2023/07/07 10:05:26;;;;;;;;;;;;;;;36.37;28.93;99348.56;5093491;28;19912;-37
2023/07/07 10:07:52;;;;;;;;;;;;;;;37.21;28.07;99347.72;5093695;28;19923;-36
2023/07/07 10:10:17;;;;;;;;;;;;;;;37.39;27.71;99347.75;5093732;28;19916;-36
2023/07/07 10:12:44;;;;;;;;;;;;;;;36.48;28.58;99356.91;5093006;28;20362;-37
2023/07/07 10:15:27;;;;;;;;;;;;;;;36.78;28.27;99357.50;5093361;28;20303;-36
2023/07/07 10:17:58;;;;;;;;;;;;;;;36.66;27.85;99351.50;5093221;28;19920;-38
2023/07/07 10:20:23;;;;;;;;;;;;;;;36.67;28.57;99345.56;5093082;28;19912;-35
2023/07/07 10:22:49;;;;;;;;;;;;;;;36.98;28.17;99344.06;5092749;28;19919;-36
2023/07/07 10:25:15;;;;;;;;;;;;;;;36.72;28.26;99342.41;5091940;28;20433;-38
2023/07/07 10:27:47;;;;;;;;;;;;;;;36.47;28.49;99339.50;5092885;28;19998;-37
2023/07/07 10:30:13;;;;;;;;;;;;;;;36.92;28.06;99344.84;5092853;28;19920;-36
2023/07/07 10:32:38;;;;;;;;;;;;;;;37.38;27.29;99330.31;5092879;28;20015;-35
2023/07/07 10:35:05;;;;;;;;;;;;;;;37.07;27.42;99329.84;5092251;28;20011;-36
2023/07/07 10:37:32;;;;;;;;;;;;;;;37.01;26.79;99325.84;5092411;28;19919;-37
2023/07/07 10:39:58;;;;;;;;;;;;;;;37.91;26.00;99326.75;5092277;28;20094;-37
2023/07/07 10:42:25;;;;;;;;;;;;;;;37.04;26.37;99316.75;5092883;28;19965;-37
2023/07/07 10:44:54;;;;;;;;;;;;;;;37.36;26.89;99302.97;5093251;28;19954;-36
2023/07/07 10:47:21;;;;;;;;;;;;;;;37.58;27.57;99319.59;5090351;28;20312;-37
2023/07/07 10:49:46;;;;;;;;;;;;;;;37.77;26.76;99318.44;5091519;28;19917;-36
2023/07/07 10:52:21;;;;;;;;;;;;;;;38.08;26.96;99308.50;5087424;28;20003;-36
2023/07/07 10:55:05;;;;;;;;;;;;;;;37.98;26.65;99309.28;5091044;28;20320;-40
2023/07/07 10:57:39;;;;;;;;;;;;;;;37.62;27.10;99309.31;5090880;28;20311;-37
2023/07/07 11:00:12;;;;;;;;;;;;;;;38.24;26.26;99305.28;5088745;28;19973;-37
2023/07/07 11:02:56;;;;;;;;;;;;;;;38.67;25.83;99301.53;5091352;28;19966;-37
2023/07/07 11:05:27;;;;;;;;;;;;;;;38.74;25.73;99298.75;5090817;28;19961;-37
2023/07/07 11:07:55;;;;;;;;;;;;;;;38.50;25.57;99265.09;5091289;28;19912;-37
2023/07/07 11:10:29;;;;;;;;;;;;;;;38.18;26.65;99289.44;5090429;28;19928;-37
2023/07/07 11:13:03;;;;;;;;;;;;;;;37.87;26.32;99289.06;5091052;28;19919;-38
2023/07/07 11:15:45;;;;;;;;;;;;;;;37.66;26.79;99287.13;5088727;28;19916;-37
2023/07/07 11:18:49;;;;;;;;;;;;;;;37.53;26.76;99289.50;5089321;28;19931;-37
2023/07/07 11:21:14;;;;;;;;;;;;;;;37.76;26.35;99278.00;5061302;28;19924;-37
2023/07/07 11:23:58;;;;;;;;;;;;;;;36.94;27.09;99284.28;5061343;28;19932;-37
2023/07/07 11:26:42;;;;;;;;;;;;;;;35.91;28.29;99282.56;5080720;28;20298;-37
2023/07/07 11:29:16;;;;;;;;;;;;;;;37.30;27.32;99276.81;5090971;28;19972;-35
2023/07/07 11:31:41;;;;;;;;;;;;;;;37.32;27.01;99271.66;5087603;28;19963;-35
2023/07/07 11:34:07;;;;;;;;;;;;;;;37.68;26.63;99266.13;5091332;28;20387;-37
2023/07/07 11:36:48;;;;;;;;;;;;;;;37.59;26.40;99279.56;5091004;28;19916;-37
2023/07/07 11:39:16;;;;;;;;;;;;;;;37.02;26.43;99254.56;5089530;28;19917;-36
2023/07/07 11:41:51;;;;;;;;;;;;;;;37.30;26.12;99260.16;5088833;28;20109;-37
2023/07/07 11:44:29;;;;;;;;;;;;;;;37.48;25.77;99243.50;5091978;28;19912;-37
2023/07/07 11:47:02;;;;;;;;;;;;;;;38.00;25.83;99243.03;5091353;28;19920;-37
2023/07/07 11:49:40;;;;;;;;;;;;;;;37.80;25.11;99261.34;5092045;28;19927;-36
2023/07/07 11:52:31;;;;;;;;;;;;;;;38.38;24.33;99253.63;5091760;28;19912;-37
2023/07/07 11:54:59;;;;;;;;;;;;;;;38.63;23.68;99251.56;5090643;28;20393;-37
2023/07/07 11:57:43;;;;;;;;;;;;;;;38.75;24.00;99255.84;5091778;28;20010;-37
2023/07/07 12:00:21;;;;;;;;;;;;;;;38.22;24.67;99246.56;5091661;28;19920;-37
2023/07/07 12:02:57;;;;;;;;;;;;;;;38.53;25.03;99249.59;5092028;28;19912;-38
2023/07/07 12:05:27;;;;;;;;;;;;;;;37.55;25.46;99262.13;5091737;28;19912;-37
2023/07/07 12:07:55;;;;;;;;;;;;;;;37.66;25.20;99262.94;5091042;28;19959;-37
2023/07/07 12:10:36;;;;;;;;;;;;;;;38.53;24.34;99269.84;5091045;28;20406;-37
2023/07/07 12:13:13;;;;;;;;;;;;;;;38.46;24.46;99278.22;5091574;28;19940;-37
2023/07/07 12:15:41;;;;;;;;;;;;;;;38.83;24.16;99287.19;5091214;28;19912;-42
2023/07/07 12:18:09;;;;;;;;;;;;;;;37.72;24.72;99302.19;5091132;28;19912;-44
2023/07/07 12:20:38;;;;;;;;;;;;;;;36.78;25.83;99323.41;5091185;28;19965;-43
2023/07/07 12:23:09;;;;;;;;;;;;;;;36.34;26.02;99313.31;5091368;28;19912;-44
2023/07/07 12:25:34;;;;;;;;;;;;;;;36.03;25.40;99318.25;5091432;28;19920;-41
2023/07/07 12:28:00;;;;;;;;;;;;;;;35.94;24.68;99312.25;5091299;28;19973;-42
2023/07/07 12:30:33;;;;;;;;;;;;;;;34.36;25.67;99310.63;5091208;28;19926;-42
2023/07/07 12:32:59;;;;;;;;;;;;;;;34.14;25.08;99307.56;5090059;28;20447;-44
2023/07/07 12:35:27;;;;;;;;;;;;;;;33.07;26.05;99301.84;5089512;28;20070;-43
2023/07/07 12:37:55;;;;;;;;;;;;;;;33.21;26.65;99293.03;5089531;28;19912;-42
2023/07/07 12:40:21;;;;;;;;;;;;;;;32.92;25.53;99280.69;5090265;28;19919;-42
2023/07/07 12:42:52;;;;;;;;;;;;;;;33.68;25.34;99288.31;5090407;28;20421;-42
2023/07/07 12:45:25;;;;;;;;;;;;;;;34.16;25.17;99293.41;5090404;28;19919;-42
2023/07/07 12:47:53;;;;;;;;;;;;;;;34.36;25.52;99291.28;5089837;28;19919;-41
2023/07/07 12:50:27;;;;;;;;;;;;;;;34.59;25.29;99288.41;5091008;28;19954;-42
2023/07/07 12:52:53;;;;;;;;;;;;;;;32.77;28.00;99311.84;5090759;28;19995;-41